createdAt,value
2019-04-11T00:01:58.602Z,2.70
2019-04-11T00:04:30.364Z,3.57
2019-04-11T00:07:01.749Z,1.97
2019-04-11T00:09:52.545Z,2.30
2019-04-11T00:12:24.317Z,2.10
2019-04-11T00:14:55.975Z,2.30
2019-04-11T00:17:28.062Z,2.47
2019-04-11T00:20:00.218Z,3.97
2019-04-11T00:22:31.668Z,4.57
2019-04-11T00:25:03.197Z,2.57
2019-04-11T00:27:35.114Z,3.33
2019-04-11T00:30:10.100Z,2.93
2019-04-11T00:32:41.686Z,2.33
2019-04-11T00:35:13.480Z,2.47
2019-04-11T00:37:45.458Z,4.30
2019-04-11T00:40:18.836Z,3.67
2019-04-11T00:42:51.159Z,4.30
2019-04-11T00:45:24.820Z,5.20
2019-04-11T00:47:57.465Z,6.50
2019-04-11T00:50:31.525Z,11.30
2019-04-11T00:53:03.563Z,8.97
2019-04-11T00:55:36.169Z,10.07
2019-04-11T00:58:07.558Z,6.67
2019-04-11T01:00:39.853Z,8.87
2019-04-11T01:03:11.754Z,9.27
2019-04-11T01:05:43.263Z,9.87
2019-04-11T01:08:15.652Z,9.63
2019-04-11T01:10:47.805Z,8.90
2019-04-11T01:13:19.379Z,8.97
2019-04-11T01:16:03.101Z,7.97
2019-04-11T01:18:34.380Z,9.77
2019-04-11T01:21:06.254Z,13.30
2019-04-11T01:23:37.827Z,9.90
2019-04-11T01:26:09.342Z,9.00
2019-04-11T01:28:40.782Z,13.13
2019-04-11T01:31:13.513Z,16.53
2019-04-11T01:33:46.245Z,14.10
2019-04-11T01:36:18.544Z,7.87
2019-04-11T01:38:54.733Z,7.27
2019-04-11T01:41:26.705Z,7.93
2019-04-11T01:44:02.205Z,5.80
2019-04-11T01:46:31.954Z,4.30
2019-04-11T01:49:10.184Z,4.90
2019-04-11T01:51:42.176Z,3.90
2019-04-11T01:54:13.840Z,3.27
2019-04-11T01:56:45.714Z,2.87
2019-04-11T01:59:17.416Z,3.17
2019-04-11T02:02:07.532Z,3.90
2019-04-11T02:04:52.299Z,4.63
2019-04-11T02:07:24.730Z,3.83
2019-04-11T02:09:56.772Z,6.80
2019-04-11T02:12:29.032Z,6.50
2019-04-11T02:15:00.405Z,5.00
2019-04-11T02:17:32.580Z,3.00
2019-04-11T02:20:06.980Z,4.23
2019-04-11T02:22:57.146Z,5.73
2019-04-11T02:25:47.291Z,4.33
2019-04-11T02:28:20.289Z,6.17
2019-04-11T02:30:55.711Z,8.87
2019-04-11T02:33:27.149Z,7.53
2019-04-11T02:35:58.574Z,6.00
2019-04-11T02:38:30.501Z,10.33
2019-04-11T02:41:03.503Z,6.13
2019-04-11T02:43:38.205Z,3.53
2019-04-11T02:46:19.857Z,2.73
2019-04-11T02:48:42.650Z,2.67
2019-04-11T02:51:15.047Z,5.53
2019-04-11T02:53:47.237Z,3.27
2019-04-11T02:56:19.330Z,4.03
2019-04-11T02:58:52.273Z,3.43
2019-04-11T03:01:26.124Z,5.13
2019-04-11T03:03:59.034Z,4.20
2019-04-11T03:06:30.999Z,10.00
2019-04-11T03:09:02.763Z,6.93
2019-04-11T03:11:34.685Z,5.17
2019-04-11T03:14:07.615Z,3.60
2019-04-11T03:16:53.449Z,4.87
2019-04-11T03:19:29.621Z,6.30
2019-04-11T03:21:47.274Z,8.77
2019-04-11T03:24:19.272Z,10.47
2019-04-11T03:26:52.622Z,9.93
2019-04-11T03:29:26.516Z,12.70
2019-04-11T03:32:51.288Z,12.67
2019-04-11T03:35:20.926Z,12.40
2019-04-11T03:37:26.080Z,12.63
2019-04-11T03:39:57.443Z,15.80
2019-04-11T03:42:29.615Z,9.20
2019-04-11T03:44:50.195Z,11.40
2019-04-11T03:47:34.814Z,13.47
2019-04-11T03:50:05.515Z,7.87
2019-04-11T03:52:30.539Z,5.23
2019-04-11T03:55:05.927Z,4.20
2019-04-11T03:57:39.660Z,3.17
2019-04-11T04:00:14.245Z,4.27
2019-04-11T04:02:55.279Z,4.23
2019-04-11T04:05:30.152Z,3.40
2019-04-11T04:08:06.112Z,3.77
2019-04-11T04:10:39.640Z,3.30
2019-04-11T04:13:16.933Z,4.17
2019-04-11T04:16:19.757Z,3.30
2019-04-11T04:18:58.798Z,3.93
2019-04-11T04:21:51.130Z,3.33
2019-04-11T04:24:32.790Z,3.80
2019-04-11T04:27:05.200Z,4.07
2019-04-11T04:29:38.111Z,3.87
2019-04-11T04:32:12.158Z,3.90
2019-04-11T04:34:48.105Z,4.00
2019-04-11T04:37:26.736Z,3.57
2019-04-11T04:40:23.827Z,3.47
2019-04-11T04:42:49.896Z,3.40
2019-04-11T04:45:21.442Z,3.43
2019-04-11T04:47:59.223Z,3.97
2019-04-11T04:50:30.947Z,5.57
2019-04-11T04:53:05.304Z,5.43
2019-04-11T04:55:41.221Z,5.77
2019-04-11T04:58:15.773Z,6.50
2019-04-11T05:00:53.800Z,7.83
2019-04-11T05:03:29.793Z,9.30
2019-04-11T05:06:11.990Z,6.53
2019-04-11T05:08:49.198Z,6.07
2019-04-11T05:11:23.971Z,6.60
2019-04-11T05:14:00.750Z,6.13
2019-04-11T05:16:37.553Z,5.47
2019-04-11T05:19:13.312Z,6.63
2019-04-11T05:21:47.852Z,4.97
2019-04-11T05:24:24.177Z,7.73
2019-04-11T05:26:57.852Z,4.07
2019-04-11T05:29:34.014Z,6.70
2019-04-11T05:32:07.668Z,5.70
2019-04-11T05:34:42.123Z,4.47
2019-04-11T05:37:17.156Z,5.13
2019-04-11T05:39:50.539Z,4.67
2019-04-11T05:42:26.512Z,4.30
2019-04-11T05:44:59.257Z,4.77
2019-04-11T05:47:35.509Z,6.07
2019-04-11T05:50:28.356Z,6.10
2019-04-11T05:53:05.559Z,6.93
2019-04-11T05:55:45.789Z,6.40
2019-04-11T05:58:24.165Z,4.43
2019-04-11T06:01:14.472Z,4.40
2019-04-11T06:03:50.452Z,4.30
2019-04-11T06:06:42.934Z,3.60
2019-04-11T06:09:23.406Z,4.73
2019-04-11T06:12:03.335Z,3.50
2019-04-11T06:14:47.187Z,4.77
2019-04-11T06:17:23.798Z,3.97
2019-04-11T06:20:27.711Z,3.30
2019-04-11T06:23:19.322Z,2.93
2019-04-11T06:26:14.706Z,3.33
2019-04-11T06:28:49.460Z,6.87
2019-04-11T06:31:42.302Z,3.07
2019-04-11T06:34:17.652Z,3.57
2019-04-11T06:37:09.687Z,4.43
2019-04-11T06:39:56.695Z,5.07
2019-04-11T06:42:39.295Z,5.17
2019-04-11T06:45:31.427Z,3.20
2019-04-11T06:48:22.320Z,3.83
2019-04-11T06:51:17.882Z,3.30
2019-04-11T06:54:11.082Z,4.53
2019-04-11T06:56:48.234Z,3.03
2019-04-11T06:59:38.689Z,5.33
2019-04-11T07:02:19.723Z,4.43
2019-04-11T07:04:55.051Z,3.10
2019-04-11T07:07:34.245Z,4.73
2019-04-11T07:10:11.730Z,4.00
2019-04-11T07:13:12.294Z,5.30
2019-04-11T07:15:52.856Z,4.70
2019-04-11T07:18:35.851Z,3.63
2019-04-11T07:21:13.229Z,6.10
2019-04-11T07:24:05.384Z,3.43
2019-04-11T07:26:45.859Z,4.80
2019-04-11T07:29:51.952Z,24.37
2019-04-11T07:32:27.896Z,5.13
2019-04-11T07:35:19.299Z,5.43
2019-04-11T07:38:03.129Z,7.40
2019-04-11T07:41:06.607Z,7.03
2019-04-11T07:43:58.543Z,9.03
2019-04-11T07:46:45.165Z,6.77
2019-04-11T07:49:24.371Z,8.27
2019-04-11T07:52:02.722Z,8.17
2019-04-11T07:54:39.632Z,5.17
2019-04-11T07:57:22.660Z,6.67
2019-04-11T08:00:13.247Z,10.10
2019-04-11T08:03:10.158Z,5.60
2019-04-11T08:06:22.431Z,6.53
2019-04-11T08:09:13.189Z,7.07
2019-04-11T08:12:08.769Z,5.60
2019-04-11T08:14:59.837Z,6.70
2019-04-11T08:17:41.767Z,6.00
2019-04-11T08:20:37.848Z,5.00
2019-04-11T08:23:16.552Z,6.60
2019-04-11T08:26:16.510Z,6.10
2019-04-11T08:28:59.614Z,6.23
2019-04-11T08:31:54.856Z,6.03
2019-04-11T08:34:27.058Z,5.23
2019-04-11T08:37:27.481Z,4.73
2019-04-11T08:39:59.771Z,5.80
2019-04-11T08:42:50.885Z,5.10
2019-04-11T08:45:23.763Z,4.77
2019-04-11T08:47:58.607Z,5.23
2019-04-11T08:50:32.884Z,4.57
2019-04-11T08:53:22.138Z,5.60
2019-04-11T08:56:01.918Z,6.03
2019-04-11T08:59:04.926Z,10.70
2019-04-11T09:01:36.786Z,4.80
2019-04-11T09:04:23.989Z,4.57
2019-04-11T09:06:56.783Z,5.80
2019-04-11T09:09:47.382Z,5.53
2019-04-11T09:12:20.484Z,4.93
2019-04-11T09:15:10.765Z,3.47
2019-04-11T09:17:58.928Z,5.13
2019-04-11T09:20:40.258Z,3.57
2019-04-11T09:23:14.379Z,166.13
2019-04-11T09:26:03.927Z,27.33
2019-04-11T09:28:39.766Z,3.70
2019-04-11T09:31:33.781Z,3.83
2019-04-11T09:34:23.882Z,2.70
2019-04-11T09:37:17.655Z,2.17
2019-04-11T09:40:23.839Z,2.00
2019-04-11T09:43:24.373Z,1.90
2019-04-11T09:46:18.947Z,2.50
2019-04-11T09:49:27.020Z,2.63
2019-04-11T09:52:04.335Z,8.93
2019-04-11T09:55:04.500Z,2.60
2019-04-11T09:57:41.979Z,5.03
2019-04-11T10:00:43.112Z,16.83
2019-04-11T10:03:25.625Z,3.57
2019-04-11T10:06:15.906Z,4.80
2019-04-11T10:08:52.729Z,3.27
2019-04-11T10:11:56.781Z,3.23
2019-04-11T10:14:31.520Z,1.70
2019-04-11T10:17:24.517Z,2.80
2019-04-11T10:19:58.758Z,3.23
2019-04-11T10:22:49.036Z,1.40
2019-04-11T10:25:25.234Z,1.47
2019-04-11T10:28:31.440Z,2.00
2019-04-11T10:31:22.211Z,1.73
2019-04-11T10:34:13.193Z,1.87
2019-04-11T10:36:49.687Z,1.50
2019-04-11T10:39:55.458Z,1.23
2019-04-11T10:42:28.727Z,1.80
2019-04-11T10:45:20.669Z,1.27
2019-04-11T10:47:55.950Z,2.87
2019-04-11T10:50:45.129Z,1.47
2019-04-11T10:53:17.979Z,1.53
2019-04-11T10:56:08.640Z,1.80
2019-04-11T10:58:51.115Z,5.73
2019-04-11T11:01:42.209Z,2.53
2019-04-11T11:04:27.617Z,2.03
2019-04-11T11:07:13.116Z,3.53
2019-04-11T11:09:56.739Z,1.97
2019-04-11T11:12:43.623Z,2.20
2019-04-11T11:15:31.558Z,2.40
2019-04-11T11:18:49.110Z,5.13
2019-04-11T11:21:06.913Z,1.93
2019-04-11T11:23:56.940Z,3.60
2019-04-11T11:26:35.487Z,1.57
2019-04-11T11:29:45.333Z,1.60
2019-04-11T11:32:33.639Z,1.90
2019-04-11T11:35:37.593Z,1.93
2019-04-11T11:38:19.864Z,1.93
2019-04-11T11:41:10.504Z,1.93
2019-04-11T11:43:43.345Z,1.30
2019-04-11T11:46:40.422Z,2.50
2019-04-11T11:49:35.231Z,3.20
2019-04-11T11:52:09.567Z,1.47
2019-04-11T11:54:46.173Z,2.07
2019-04-11T11:57:40.338Z,5.43
2019-04-11T12:00:23.455Z,1.27
2019-04-11T12:03:05.311Z,1.80
2019-04-11T12:06:03.113Z,2.73
2019-04-11T12:09:00.349Z,1.43
2019-04-11T12:11:32.362Z,1.37
2019-04-11T12:14:43.443Z,1.30
2019-04-11T12:17:52.494Z,1.30
2019-04-11T12:20:31.330Z,3.97
2019-04-11T12:23:07.288Z,1.40
2019-04-11T12:25:47.147Z,1.50
2019-04-11T12:28:38.453Z,2.10
2019-04-11T12:31:11.355Z,2.80
2019-04-11T12:34:20.210Z,1.60
2019-04-11T12:36:53.319Z,1.30
2019-04-11T12:39:44.092Z,1.57
2019-04-11T12:42:25.675Z,1.63
2019-04-11T12:45:28.579Z,6.53
2019-04-11T12:48:01.978Z,3.30
2019-04-11T12:50:51.716Z,2.30
2019-04-11T12:53:34.124Z,9.37
2019-04-11T12:56:28.748Z,5.33
2019-04-11T12:59:03.588Z,3.30
2019-04-11T13:01:53.370Z,1.23
2019-04-11T13:04:50.413Z,13.53
2019-04-11T13:07:51.696Z,5.63
2019-04-11T13:10:26.732Z,26.00
2019-04-11T13:13:20.075Z,3.97
2019-04-11T13:16:12.205Z,1.20
2019-04-11T13:19:02.456Z,1.97
2019-04-11T13:21:57.436Z,2.23
2019-04-11T13:24:59.889Z,15.80
2019-04-11T13:27:39.227Z,6.20
2019-04-11T13:30:29.406Z,12.70
2019-04-11T13:33:04.561Z,1.47
2019-04-11T13:35:55.549Z,3.30
2019-04-11T13:38:46.559Z,3.03
2019-04-11T13:41:35.952Z,1.17
2019-04-11T13:44:15.140Z,2.10
2019-04-11T13:47:02.538Z,1.80
2019-04-11T13:49:48.749Z,1.30
2019-04-11T13:52:39.560Z,1.77
2019-04-11T13:55:32.062Z,3.10
2019-04-11T13:58:18.856Z,7.33
2019-04-11T14:01:01.985Z,2.20
2019-04-11T14:03:58.820Z,1.60
2019-04-11T14:06:40.829Z,17.33
2019-04-11T14:09:38.798Z,11.77
2019-04-11T14:12:15.136Z,1.93
2019-04-11T14:15:06.007Z,1.50
2019-04-11T14:17:52.358Z,2.50
2019-04-11T14:20:58.118Z,1.77
2019-04-11T14:23:37.960Z,1.50
2019-04-11T14:26:31.998Z,2.23
2019-04-11T14:29:19.017Z,1.83
2019-04-11T14:32:00.109Z,1.90
2019-04-11T14:34:45.099Z,1.80
2019-04-11T14:37:38.937Z,1.70
2019-04-11T14:40:41.952Z,2.80
2019-04-11T14:43:43.767Z,2.10
2019-04-11T14:46:36.546Z,2.50
2019-04-11T14:49:13.662Z,3.60
2019-04-11T14:52:25.324Z,4.03
2019-04-11T14:55:00.266Z,2.50
2019-04-11T14:57:55.907Z,3.30
2019-04-11T15:00:37.058Z,5.47
2019-04-11T15:03:36.663Z,9.23
2019-04-11T15:06:31.448Z,3.47
2019-04-11T15:09:28.862Z,4.60
2019-04-11T15:12:10.770Z,1.87
2019-04-11T15:15:20.367Z,6.63
2019-04-11T15:17:57.947Z,3.23
2019-04-11T15:20:54.688Z,6.20
2019-04-11T15:23:25.551Z,3.90
2019-04-11T15:26:16.361Z,4.40
2019-04-11T15:29:07.167Z,4.23
2019-04-11T15:32:06.832Z,8.50
2019-04-11T15:34:46.959Z,3.63
2019-04-11T15:37:36.406Z,6.00
2019-04-11T15:40:12.212Z,4.03
2019-04-11T15:43:05.994Z,6.13
2019-04-11T15:45:42.375Z,5.60
2019-04-11T15:48:40.313Z,5.03
2019-04-11T15:51:46.075Z,7.80
2019-04-11T15:54:43.141Z,9.80
2019-04-11T15:57:32.559Z,6.03
2019-04-11T16:00:27.081Z,4.33
2019-04-11T16:03:18.190Z,6.53
2019-04-11T16:06:11.726Z,5.63
2019-04-11T16:08:46.364Z,5.50
2019-04-11T16:11:52.510Z,4.27
2019-04-11T16:14:32.636Z,4.10
2019-04-11T16:17:36.069Z,4.70
2019-04-11T16:20:22.120Z,5.37
2019-04-11T16:23:18.788Z,3.90
2019-04-11T16:25:55.272Z,4.53
2019-04-11T16:28:56.720Z,4.67
2019-04-11T16:31:40.134Z,4.57
2019-04-11T16:34:55.756Z,3.57
2019-04-11T16:37:27.468Z,3.70
2019-04-11T16:40:29.242Z,4.27
2019-04-11T16:43:07.661Z,4.50
2019-04-11T16:45:57.424Z,4.73
2019-04-11T16:48:31.348Z,4.77
2019-04-11T16:51:05.808Z,4.30
2019-04-11T16:53:38.162Z,4.90
2019-04-11T16:56:12.801Z,5.73
2019-04-11T16:58:50.091Z,6.10
2019-04-11T17:01:23.855Z,5.20
2019-04-11T17:03:56.898Z,5.23
2019-04-11T17:06:45.725Z,5.80
2019-04-11T17:09:31.230Z,5.83
2019-04-11T17:12:03.484Z,5.33
2019-04-11T17:14:37.531Z,8.20
2019-04-11T17:17:15.327Z,5.57
2019-04-11T17:19:45.508Z,8.73
2019-04-11T17:22:18.888Z,8.93
2019-04-11T17:24:51.243Z,10.57
2019-04-11T17:27:23.716Z,8.57
2019-04-11T17:29:56.371Z,9.53
2019-04-11T17:32:28.757Z,8.60
2019-04-11T17:35:02.044Z,9.97
2019-04-11T17:37:34.907Z,9.07
2019-04-11T17:40:07.703Z,9.93
2019-04-11T17:42:39.590Z,8.97
2019-04-11T17:45:11.727Z,6.67
2019-04-11T17:47:44.812Z,22.87
2019-04-11T17:50:18.351Z,21.67
2019-04-11T17:52:50.333Z,6.50
2019-04-11T17:55:24.552Z,43.70
2019-04-11T17:57:57.662Z,579.23
2019-04-11T18:00:32.719Z,395.97
2019-04-11T18:03:05.902Z,272.43
2019-04-11T18:05:38.028Z,615.00
2019-04-11T18:08:10.061Z,261.07
2019-04-11T18:10:42.219Z,173.33
2019-04-11T18:13:14.046Z,157.67
2019-04-11T18:15:45.904Z,85.43
2019-04-11T18:18:17.747Z,149.67
2019-04-11T18:20:52.033Z,159.50
2019-04-11T18:23:24.398Z,59.13
2019-04-11T18:25:56.669Z,27.07
2019-04-11T18:28:29.823Z,22.47
2019-04-11T18:31:02.326Z,16.53
2019-04-11T18:33:36.603Z,19.40
2019-04-11T18:36:09.645Z,17.43
2019-04-11T18:38:41.777Z,10.63
2019-04-11T18:41:14.026Z,13.50
2019-04-11T18:43:47.126Z,13.20
2019-04-11T18:46:20.235Z,19.90
2019-04-11T18:48:54.885Z,14.80
2019-04-11T18:51:27.344Z,11.17
2019-04-11T18:53:59.388Z,11.57
2019-04-11T18:56:31.853Z,12.03
2019-04-11T18:59:04.379Z,8.30
2019-04-11T19:01:39.121Z,7.87
2019-04-11T19:04:12.011Z,7.97
2019-04-11T19:06:44.010Z,7.17
2019-04-11T19:09:22.102Z,7.33
2019-04-11T19:11:54.706Z,13.37
2019-04-11T19:14:31.836Z,7.07
2019-04-11T19:17:04.402Z,10.50
2019-04-11T19:19:48.701Z,9.53
2019-04-11T19:22:32.261Z,13.50
2019-04-11T19:24:54.372Z,14.53
2019-04-11T19:27:26.935Z,15.40
2019-04-11T19:30:02.556Z,13.87
2019-04-11T19:32:35.131Z,11.03
2019-04-11T19:35:17.228Z,13.30
2019-04-11T19:37:50.652Z,14.07
2019-04-11T19:40:30.340Z,12.20
2019-04-11T19:43:03.516Z,11.33
2019-04-11T19:45:40.905Z,13.70
2019-04-11T19:48:15.254Z,16.83
2019-04-11T19:50:47.817Z,8.83
2019-04-11T19:53:20.497Z,6.33
2019-04-11T19:56:18.841Z,8.43
2019-04-11T19:58:51.749Z,12.23
2019-04-11T20:01:25.863Z,8.90
2019-04-11T20:03:58.305Z,10.00
2019-04-11T20:06:32.350Z,24.43
2019-04-11T20:09:06.479Z,9.27
2019-04-11T20:11:39.109Z,10.77
2019-04-11T20:14:16.513Z,7.80
2019-04-11T20:16:51.945Z,6.40
2019-04-11T20:19:27.124Z,6.37
2019-04-11T20:21:59.171Z,6.53
2019-04-11T20:24:31.935Z,6.33
2019-04-11T20:27:04.746Z,8.80
2019-04-11T20:29:37.379Z,6.17
2019-04-11T20:32:12.978Z,6.20
2019-04-11T20:34:45.688Z,6.67
2019-04-11T20:37:18.203Z,11.33
2019-04-11T20:39:50.380Z,11.00
2019-04-11T20:42:26.667Z,8.97
2019-04-11T20:45:02.144Z,7.60
2019-04-11T20:47:43.194Z,7.90
2019-04-11T20:50:16.162Z,7.50
2019-04-11T20:52:54.478Z,8.83
2019-04-11T20:55:26.739Z,8.80
2019-04-11T20:58:09.816Z,22.67
2019-04-11T21:00:50.164Z,9.07
2019-04-11T21:03:14.722Z,7.20
2019-04-11T21:05:47.209Z,9.93
2019-04-11T21:08:22.046Z,7.87
2019-04-11T21:10:55.495Z,7.80
2019-04-11T21:13:30.641Z,8.40
2019-04-11T21:16:03.803Z,8.27
2019-04-11T21:18:42.121Z,9.17
2019-04-11T21:21:14.145Z,10.60
2019-04-11T21:23:52.107Z,9.43
2019-04-11T21:26:24.201Z,9.77
2019-04-11T21:29:00.291Z,12.30
2019-04-11T21:31:32.576Z,10.83
2019-04-11T21:34:12.030Z,12.93
2019-04-11T21:36:44.029Z,11.60
2019-04-11T21:39:25.223Z,16.83
2019-04-11T21:41:57.477Z,17.00
2019-04-11T21:44:37.114Z,11.67
2019-04-11T21:47:09.226Z,10.40
2019-04-11T21:49:48.460Z,11.73
2019-04-11T21:52:20.492Z,12.13
2019-04-11T21:54:55.462Z,11.50
2019-04-11T21:57:27.976Z,11.50
2019-04-11T22:00:14.260Z,11.93
2019-04-11T22:02:46.317Z,11.70
2019-04-11T22:05:18.179Z,12.47
2019-04-11T22:07:50.687Z,14.83
2019-04-11T22:10:30.371Z,14.37
2019-04-11T22:13:09.763Z,15.00
2019-04-11T22:15:42.536Z,15.27
2019-04-11T22:18:16.780Z,17.87
2019-04-11T22:20:48.786Z,12.80
2019-04-11T22:23:21.103Z,13.03
2019-04-11T22:25:56.031Z,12.43
2019-04-11T22:28:28.617Z,12.00
2019-04-11T22:31:09.867Z,13.20
2019-04-11T22:34:00.645Z,12.17
2019-04-11T22:36:33.652Z,12.20
2019-04-11T22:39:08.541Z,13.17
2019-04-11T22:41:41.375Z,13.87
2019-04-11T22:44:14.177Z,12.90
2019-04-11T22:46:47.030Z,12.10
2019-04-11T22:49:19.304Z,11.57
2019-04-11T22:51:51.804Z,15.13
2019-04-11T22:54:23.924Z,13.00
2019-04-11T22:56:56.169Z,17.53
2019-04-11T22:59:28.145Z,14.13
2019-04-11T23:02:16.866Z,12.53
2019-04-11T23:04:47.078Z,13.50
2019-04-11T23:07:22.787Z,14.10
2019-04-11T23:09:55.570Z,13.47
2019-04-11T23:12:30.370Z,16.60
2019-04-11T23:15:03.332Z,17.07
2019-04-11T23:17:39.413Z,16.07
2019-04-11T23:20:14.266Z,22.23
2019-04-11T23:22:56.429Z,23.00
2019-04-11T23:25:28.677Z,22.50
2019-04-11T23:28:00.462Z,20.83
2019-04-11T23:30:32.369Z,17.37
2019-04-11T23:33:10.108Z,17.27
2019-04-11T23:35:42.783Z,18.50
2019-04-11T23:38:23.859Z,19.40
2019-04-11T23:40:55.972Z,22.40
2019-04-11T23:43:30.764Z,19.87
2019-04-11T23:46:03.013Z,15.90
2019-04-11T23:48:38.950Z,79.23
2019-04-11T23:51:11.564Z,41.27
2019-04-11T23:53:49.617Z,34.10
2019-04-11T23:56:22.305Z,34.13
2019-04-11T23:59:01.841Z,28.53
